Time;durP1;ratioP1;P1;durP2;ratioP2;P2;SDS_P1;SDS_P2;PMS_P1;PMS_P2;Temp;Humidity;BMP_temperature;BMP_pressure;BME280_temperature;BME280_humidity;BME280_pressure;Samples;Min_cycle;Max_cycle;Signal;HPM_P1;HPM_P2
2021/06/27 00:01:05;;;;;;;;;;;17.60;99.90;;;-145.59;100.00;63944.34;5061077;28;20011;-64
2021/06/27 00:03:31;;;;;;;;;;;17.60;99.90;;;-145.59;100.00;63944.34;5059988;28;20012;-62
2021/06/27 00:05:57;;;;;;;;;;;17.60;99.90;;;-145.59;100.00;63944.34;5044244;28;19935;-66
2021/06/27 00:08:22;;;;;;;;;;;17.60;99.90;;;-145.59;100.00;63944.34;5061525;28;19921;-63
2021/06/27 00:10:48;;;;;;;;;;;17.60;99.90;;;-145.59;100.00;63944.34;5061230;28;19936;-63
2021/06/27 00:13:14;;;;;;;;;;;17.50;99.90;;;-145.59;100.00;63944.34;5062119;28;20015;-66
2021/06/27 00:15:47;;;;;;;;;;;17.50;99.90;;;-145.59;100.00;63944.34;5045707;28;19953;-63
2021/06/27 00:18:16;;;;;;;;;;;17.50;99.90;;;-145.59;100.00;63944.34;5043505;28;19920;-64
2021/06/27 00:20:43;;;;;;;;;;;17.40;99.90;;;-145.59;100.00;63944.34;5045043;28;19917;-63
2021/06/27 00:23:11;;;;;;;;;;;17.40;99.90;;;-145.59;100.00;63944.34;5061396;28;20286;-63
2021/06/27 00:25:37;;;;;;;;;;;17.40;99.90;;;-145.59;100.00;63944.34;5062807;28;19917;-63
2021/06/27 00:28:05;;;;;;;;;;;17.40;99.90;;;-145.59;100.00;63944.34;5061772;28;20402;-62
2021/06/27 00:30:31;;;;;;;;;;;17.40;99.90;;;-145.59;100.00;63944.34;5059725;28;19976;-62
2021/06/27 00:32:57;;;;;;;;;;;17.40;99.90;;;-145.59;100.00;63944.34;5057171;28;19939;-62
2021/06/27 00:35:24;;;;;;;;;;;17.40;99.90;;;-145.59;100.00;63944.34;5041491;28;19921;-64
2021/06/27 00:37:50;;;;;;;;;;;17.40;99.90;;;-145.59;100.00;63944.34;5058381;28;19917;-62
2021/06/27 00:40:19;;;;;;;;;;;17.40;99.90;;;-145.59;100.00;63944.34;5041441;28;19921;-62
2021/06/27 00:42:45;;;;;;;;;;;17.40;99.90;;;-145.59;100.00;63944.34;5058146;28;19916;-62
2021/06/27 00:45:13;;;;;;;;;;;17.30;99.90;;;-145.59;100.00;63944.34;5057135;28;19954;-63
2021/06/27 00:47:40;;;;;;;;;;;17.40;99.90;;;-145.59;100.00;63944.34;5058691;28;19920;-64
2021/06/27 00:50:08;;;;;;;;;;;17.40;99.90;;;-145.59;100.00;63944.34;5057052;28;20379;-63
2021/06/27 00:52:34;;;;;;;;;;;17.30;99.90;;;-145.59;100.00;63944.34;5042261;28;20329;-62
2021/06/27 00:55:00;;;;;;;;;;;17.40;99.90;;;-145.59;100.00;63944.34;5059936;28;19917;-62
2021/06/27 00:57:25;;;;;;;;;;;17.30;99.90;;;-145.59;100.00;63944.34;5043337;28;20020;-62
2021/06/27 00:59:51;;;;;;;;;;;17.40;99.90;;;-145.59;100.00;63944.34;5044706;28;20011;-63
2021/06/27 01:02:17;;;;;;;;;;;17.40;99.90;;;-145.59;100.00;63944.34;5027901;28;20035;-63
2021/06/27 01:04:43;;;;;;;;;;;17.40;99.90;;;-145.59;100.00;63944.34;5043725;28;19921;-64
2021/06/27 01:07:09;;;;;;;;;;;17.30;99.90;;;-145.59;100.00;63944.34;5059095;28;19927;-63
2021/06/27 01:09:34;;;;;;;;;;;17.40;99.90;;;-145.59;100.00;63944.34;5061926;28;19928;-66
2021/06/27 01:12:01;;;;;;;;;;;17.40;99.90;;;-145.59;100.00;63944.34;5057024;28;20011;-62
2021/06/27 01:14:27;;;;;;;;;;;17.30;99.90;;;-145.59;100.00;63944.34;5058154;28;20276;-63
2021/06/27 01:16:53;;;;;;;;;;;17.30;99.90;;;-145.59;100.00;63944.34;5058820;28;19956;-63
2021/06/27 01:19:19;;;;;;;;;;;17.30;99.90;;;-145.59;100.00;63944.34;5055964;28;20028;-61
2021/06/27 01:21:50;;;;;;;;;;;17.30;99.90;;;-145.59;100.00;63944.34;5041116;28;19995;-62
2021/06/27 01:24:16;;;;;;;;;;;17.30;99.90;;;-145.59;100.00;63944.34;5043163;28;20007;-64
2021/06/27 01:26:42;;;;;;;;;;;17.30;99.90;;;-145.59;100.00;63944.34;5060193;28;20019;-63
2021/06/27 01:29:07;;;;;;;;;;;17.30;99.90;;;-145.59;100.00;63944.34;5060020;28;20378;-63
2021/06/27 01:31:34;;;;;;;;;;;17.30;99.90;;;-145.59;100.00;63944.34;5041948;28;19986;-62
2021/06/27 01:34:00;;;;;;;;;;;17.30;99.90;;;-145.59;100.00;63944.34;5024212;28;19920;-65
2021/06/27 01:36:26;;;;;;;;;;;17.30;99.90;;;-145.59;100.00;63944.34;5043235;28;19924;-63
2021/06/27 01:38:52;;;;;;;;;;;17.30;99.90;;;-145.59;100.00;63944.34;5060287;28;19980;-62
2021/06/27 01:41:18;;;;;;;;;;;17.20;99.90;;;-145.59;100.00;63944.34;5056874;28;20015;-63
2021/06/27 01:43:44;;;;;;;;;;;17.20;99.90;;;-145.59;100.00;63944.34;5061172;28;19999;-63
2021/06/27 01:46:10;;;;;;;;;;;17.20;99.90;;;-145.59;100.00;63944.34;5059725;28;19924;-61
2021/06/27 01:48:37;;;;;;;;;;;17.20;99.90;;;-145.59;100.00;63944.34;5041728;28;19921;-62
2021/06/27 01:51:04;;;;;;;;;;;17.30;99.90;;;-145.59;100.00;63944.34;5041516;28;19924;-63
2021/06/27 01:53:32;;;;;;;;;;;17.20;99.90;;;-145.59;100.00;63944.34;5058395;28;19917;-62
2021/06/27 01:56:05;;;;;;;;;;;17.20;99.90;;;-145.59;100.00;63944.34;5041648;28;19913;-62
2021/06/27 01:58:39;;;;;;;;;;;17.20;99.90;;;-145.59;100.00;63944.34;5057826;28;19974;-62
2021/06/27 02:01:07;;;;;;;;;;;17.20;99.90;;;-145.59;100.00;63944.34;5060263;28;19944;-62
2021/06/27 02:03:33;;;;;;;;;;;17.10;99.90;;;-145.59;100.00;63944.34;5041394;28;19917;-62
2021/06/27 02:05:58;;;;;;;;;;;17.10;99.90;;;-145.59;100.00;63944.34;5058049;28;19947;-65
2021/06/27 02:08:33;;;;;;;;;;;17.10;99.90;;;-145.59;100.00;63944.34;5062725;28;19920;-62
2021/06/27 02:11:01;;;;;;;;;;;17.10;99.90;;;-145.59;100.00;63944.34;5062826;28;19916;-62
2021/06/27 02:13:26;;;;;;;;;;;17.10;99.90;;;-145.59;100.00;63944.34;5043758;28;19917;-62
2021/06/27 02:15:52;;;;;;;;;;;17.20;99.90;;;-145.59;100.00;63944.34;5046688;28;19920;-63
2021/06/27 02:18:29;;;;;;;;;;;17.10;99.90;;;-145.59;100.00;63944.34;5062979;28;20357;-63
2021/06/27 02:20:56;;;;;;;;;;;17.10;99.90;;;-145.59;100.00;63944.34;5044318;28;20375;-67
2021/06/27 02:23:23;;;;;;;;;;;17.20;99.90;;;-145.59;100.00;63944.34;5060827;28;20019;-63
2021/06/27 02:25:48;;;;;;;;;;;17.20;99.90;;;-145.59;100.00;63944.34;5061625;28;19917;-63
2021/06/27 02:28:14;;;;;;;;;;;17.10;99.90;;;-145.59;100.00;63944.34;5062564;28;20015;-63
2021/06/27 02:30:40;;;;;;;;;;;17.10;99.90;;;-145.59;100.00;63944.34;5059979;28;20015;-63
2021/06/27 02:33:05;;;;;;;;;;;17.20;99.90;;;-145.59;100.00;63944.34;5044036;28;19976;-63
2021/06/27 02:35:32;;;;;;;;;;;17.20;99.90;;;-145.59;100.00;63944.34;5060834;28;19988;-63
2021/06/27 02:37:58;;;;;;;;;;;17.20;99.90;;;-145.59;100.00;63944.34;5063451;28;19974;-63
2021/06/27 02:40:23;;;;;;;;;;;17.20;99.90;;;-145.59;100.00;63944.34;5063585;28;20062;-63
2021/06/27 02:42:49;;;;;;;;;;;17.20;99.90;;;-145.59;100.00;63944.34;5067281;28;19984;-63
2021/06/27 02:45:15;;;;;;;;;;;17.10;99.90;;;-145.59;100.00;63944.34;5065013;28;20007;-64
2021/06/27 02:47:41;;;;;;;;;;;17.10;99.90;;;-145.59;100.00;63944.34;5033446;28;20440;-62
2021/06/27 02:50:13;;;;;;;;;;;17.20;99.90;;;-145.59;100.00;63944.34;5063518;28;19917;-62
2021/06/27 02:52:39;;;;;;;;;;;17.20;99.90;;;-145.59;100.00;63944.34;5045996;28;20375;-63
2021/06/27 02:55:06;;;;;;;;;;;17.20;99.90;;;-145.59;100.00;63944.34;5044060;28;19921;-64
2021/06/27 02:57:32;;;;;;;;;;;17.20;99.90;;;-145.59;100.00;63944.34;5063683;28;19927;-63
2021/06/27 02:59:58;;;;;;;;;;;17.20;99.90;;;-145.59;100.00;63944.34;5063383;28;20369;-61
2021/06/27 03:02:24;;;;;;;;;;;17.20;99.90;;;-145.59;100.00;63944.34;5042543;28;19988;-63
2021/06/27 03:04:50;;;;;;;;;;;17.20;99.90;;;-145.59;100.00;63944.34;5061485;28;19917;-62
2021/06/27 03:07:15;;;;;;;;;;;17.20;99.90;;;-145.59;100.00;63944.34;5044343;28;20011;-63
2021/06/27 03:09:41;;;;;;;;;;;17.10;99.90;;;-145.59;100.00;63944.34;5058954;28;19932;-62
2021/06/27 03:12:07;;;;;;;;;;;17.10;99.90;;;-145.59;100.00;63944.34;5045480;28;19921;-63
2021/06/27 03:14:33;;;;;;;;;;;17.10;99.90;;;-145.59;100.00;63944.34;5061053;28;19927;-63
2021/06/27 03:16:59;;;;;;;;;;;17.20;99.90;;;-145.59;100.00;63944.34;5057620;28;20023;-62
2021/06/27 03:19:24;;;;;;;;;;;17.10;99.90;;;-145.59;100.00;63944.34;5059013;28;19920;-62
2021/06/27 03:21:50;;;;;;;;;;;17.10;99.90;;;-145.59;100.00;63944.34;5042977;28;19927;-62
2021/06/27 03:24:16;;;;;;;;;;;17.10;99.90;;;-145.59;100.00;63944.34;5059391;28;19920;-62
2021/06/27 03:26:42;;;;;;;;;;;17.10;99.90;;;-145.59;100.00;63944.34;5043331;28;20007;-62
2021/06/27 03:29:08;;;;;;;;;;;17.10;99.90;;;-145.59;100.00;63944.34;5059701;28;20003;-63
2021/06/27 03:31:34;;;;;;;;;;;17.10;99.90;;;-145.59;100.00;63944.34;5034483;28;19925;-62
2021/06/27 03:34:00;;;;;;;;;;;17.10;99.90;;;-145.59;100.00;63944.34;5057619;28;19921;-61
2021/06/27 03:36:25;;;;;;;;;;;17.10;99.90;;;-145.59;100.00;63944.34;5057463;28;20067;-62
2021/06/27 03:41:22;;;;;;;;;;;17.20;99.90;;;-145.59;100.00;63944.34;5057488;28;19944;-63
2021/06/27 03:43:47;;;;;;;;;;;17.20;99.90;;;-145.59;100.00;63944.34;5056390;28;19932;-62
2021/06/27 03:46:14;;;;;;;;;;;17.20;99.90;;;-145.59;100.00;63944.34;5058983;28;19920;-62
2021/06/27 03:48:40;;;;;;;;;;;17.20;99.90;;;-145.59;100.00;63944.34;5058541;28;19963;-64
2021/06/27 03:51:06;;;;;;;;;;;17.20;99.90;;;-145.59;100.00;63944.34;5038758;28;19956;-63
2021/06/27 03:53:32;;;;;;;;;;;17.30;99.90;;;-145.59;100.00;63944.34;5055535;28;19925;-62
2021/06/27 03:55:58;;;;;;;;;;;17.30;99.90;;;-145.59;100.00;63944.34;5057480;28;20304;-62
2021/06/27 03:58:27;;;;;;;;;;;17.30;99.90;;;-145.59;100.00;63944.34;5058549;28;19921;-62
2021/06/27 04:00:54;;;;;;;;;;;17.40;99.90;;;-145.59;100.00;63944.34;5059468;28;19921;-61
2021/06/27 04:03:21;;;;;;;;;;;17.40;99.90;;;-145.59;100.00;63944.34;5055800;28;20440;-63
2021/06/27 04:05:47;;;;;;;;;;;17.40;99.90;;;-145.59;100.00;63944.34;5058625;28;19921;-63
2021/06/27 04:08:12;;;;;;;;;;;17.50;99.90;;;-145.59;100.00;63944.34;5056543;28;20007;-63
2021/06/27 04:10:38;;;;;;;;;;;17.50;99.90;;;-145.59;100.00;63944.34;5057416;28;19966;-63
2021/06/27 04:13:04;;;;;;;;;;;17.70;99.90;;;-145.59;100.00;63944.34;5058169;28;20019;-65
2021/06/27 04:15:29;;;;;;;;;;;17.70;99.90;;;-145.59;100.00;63944.34;5056993;28;20012;-62
2021/06/27 04:17:55;;;;;;;;;;;17.90;99.90;;;-145.59;100.00;63944.34;5055637;28;20011;-63
2021/06/27 04:20:21;;;;;;;;;;;18.00;99.90;;;-145.59;100.00;63944.34;5042305;28;19927;-69
2021/06/27 04:22:46;;;;;;;;;;;18.10;99.90;;;-145.59;100.00;63944.34;5057789;28;19984;-63
2021/06/27 04:25:12;;;;;;;;;;;18.30;99.90;;;-145.59;100.00;63944.34;5056254;28;20015;-64
2021/06/27 04:27:38;;;;;;;;;;;18.50;99.90;;;-145.59;100.00;63944.34;5041322;28;20272;-64
2021/06/27 04:30:06;;;;;;;;;;;18.80;99.90;;;-145.59;100.00;63944.34;5023777;28;19928;-64
2021/06/27 04:32:32;;;;;;;;;;;19.10;99.90;;;-145.59;100.00;63944.34;5038060;28;19925;-63
2021/06/27 04:34:57;;;;;;;;;;;19.50;99.90;;;-145.59;100.00;63944.34;5056486;28;20390;-67
2021/06/27 04:37:23;;;;;;;;;;;19.90;99.90;;;-145.59;100.00;63944.34;5056034;28;20422;-69
2021/06/27 04:39:49;;;;;;;;;;;20.30;99.90;;;-145.59;100.00;63944.34;5054615;28;20470;-62
2021/06/27 04:42:15;;;;;;;;;;;20.60;99.90;;;-145.59;100.00;63944.34;5037983;28;19921;-71
2021/06/27 04:44:41;;;;;;;;;;;21.00;99.90;;;-145.59;100.00;63944.34;5037057;28;19920;-63
2021/06/27 04:47:08;;;;;;;;;;;21.20;99.90;;;-145.59;100.00;63944.34;5054805;28;19929;-66
2021/06/27 04:49:35;;;;;;;;;;;21.50;99.90;;;-145.59;100.00;63944.34;5037375;28;19917;-63
2021/06/27 04:52:01;;;;;;;;;;;22.00;99.90;;;-145.59;100.00;63944.34;5053439;28;19921;-70
2021/06/27 04:54:26;;;;;;;;;;;22.40;99.90;;;-145.59;100.00;63944.34;5053158;28;20473;-62
2021/06/27 04:56:52;;;;;;;;;;;22.70;99.90;;;-145.59;100.00;63944.34;5052805;28;19921;-68
2021/06/27 04:59:18;;;;;;;;;;;22.90;99.90;;;-145.59;100.00;63944.34;5054326;28;19928;-66
2021/06/27 05:01:43;;;;;;;;;;;23.00;99.90;;;-145.59;100.00;63944.34;5053884;28;19920;-70
2021/06/27 05:04:09;;;;;;;;;;;23.10;99.90;;;-145.59;100.00;63944.34;5054007;28;19928;-68
2021/06/27 05:06:35;;;;;;;;;;;23.10;99.90;;;-145.59;100.00;63944.34;5054168;28;19921;-75
2021/06/27 05:09:00;;;;;;;;;;;23.20;99.90;;;-145.59;100.00;63944.34;5052535;28;19966;-69
2021/06/27 05:11:26;;;;;;;;;;;23.10;99.90;;;-145.59;100.00;63944.34;5054208;28;20360;-68
2021/06/27 05:13:52;;;;;;;;;;;23.10;99.90;;;-145.59;100.00;63944.34;5053980;28;19931;-65
2021/06/27 05:16:17;;;;;;;;;;;23.20;99.90;;;-145.59;100.00;63944.34;5053629;28;19923;-66
2021/06/27 05:18:43;;;;;;;;;;;23.20;99.90;;;-145.59;100.00;63944.34;5052561;28;19974;-63
2021/06/27 05:21:09;;;;;;;;;;;23.10;99.90;;;-145.59;100.00;63944.34;5052475;28;19917;-66
2021/06/27 05:23:35;;;;;;;;;;;22.90;99.90;;;-145.59;100.00;63944.34;5053444;28;19927;-72
2021/06/27 05:26:02;;;;;;;;;;;22.90;99.90;;;-145.59;100.00;63944.34;5053488;28;19928;-65
2021/06/27 05:28:30;;;;;;;;;;;22.90;99.90;;;-145.59;100.00;63944.34;5053391;28;19924;-69
2021/06/27 05:30:56;;;;;;;;;;;22.80;99.90;;;-145.59;100.00;63944.34;5054286;28;19957;-70
2021/06/27 05:33:22;;;;;;;;;;;22.80;99.90;;;-145.59;100.00;63944.34;5055463;28;19958;-66
2021/06/27 05:35:48;;;;;;;;;;;22.80;99.90;;;-145.59;100.00;63944.34;5055558;28;19970;-64
2021/06/27 05:38:13;;;;;;;;;;;23.10;99.90;;;-145.59;100.00;63944.34;5055618;28;19927;-66
2021/06/27 05:40:39;;;;;;;;;;;23.50;99.90;;;-145.59;100.00;63944.34;5055683;28;19927;-69
2021/06/27 05:43:05;;;;;;;;;;;23.90;99.90;;;-145.59;100.00;63944.34;5073317;28;19926;-66
2021/06/27 05:45:31;;;;;;;;;;;24.10;99.90;;;-145.59;100.00;63944.34;5073282;28;20015;-63
2021/06/27 05:47:56;;;;;;;;;;;24.20;99.90;;;-145.59;100.00;63944.34;5089275;28;19946;-63
2021/06/27 05:50:22;;;;;;;;;;;24.10;99.90;;;-145.59;100.00;63944.34;5073758;28;19927;-67
2021/06/27 05:52:48;;;;;;;;;;;24.00;99.90;;;-145.59;100.00;63944.34;5073491;28;19920;-67
2021/06/27 05:55:14;;;;;;;;;;;24.10;99.90;;;-145.59;100.00;63944.34;5055462;28;19974;-69
2021/06/27 05:57:39;;;;;;;;;;;24.10;99.90;;;-145.59;100.00;63944.34;5055651;28;19917;-61
2021/06/27 06:00:06;;;;;;;;;;;24.20;99.90;;;-145.59;100.00;63944.34;5073244;28;19925;-67
2021/06/27 06:02:31;;;;;;;;;;;24.10;99.90;;;-145.59;100.00;63944.34;5022064;28;19920;-66
2021/06/27 06:04:57;;;;;;;;;;;24.10;99.90;;;-145.59;100.00;63944.34;5055361;28;19927;-67
2021/06/27 06:07:23;;;;;;;;;;;23.80;99.90;;;-145.59;100.00;63944.34;5073101;28;19921;-69
2021/06/27 06:09:48;;;;;;;;;;;23.80;99.90;;;-145.59;100.00;63944.34;5055394;28;19920;-69
2021/06/27 06:12:14;;;;;;;;;;;23.60;99.90;;;-145.59;100.00;63944.34;5073706;28;19920;-70
2021/06/27 06:14:40;;;;;;;;;;;23.30;99.90;;;-145.59;100.00;63944.34;5038583;28;20324;-70
2021/06/27 06:17:05;;;;;;;;;;;22.90;99.90;;;-145.59;100.00;63944.34;5055216;28;19917;-70
2021/06/27 06:19:31;;;;;;;;;;;22.60;99.90;;;-145.59;100.00;63944.34;5073141;28;19920;-73
2021/06/27 06:21:57;;;;;;;;;;;22.50;99.90;;;-145.59;100.00;63944.34;5073268;28;19916;-64
2021/06/27 06:24:23;;;;;;;;;;;22.40;99.90;;;-145.59;100.00;63944.34;5073124;28;20256;-64
2021/06/27 06:26:49;;;;;;;;;;;22.50;99.90;;;-145.59;100.00;63944.34;5055359;28;19917;-72
2021/06/27 06:29:15;;;;;;;;;;;22.50;99.90;;;-145.59;100.00;63944.34;5072913;28;19920;-68
2021/06/27 06:31:41;;;;;;;;;;;22.70;99.90;;;-145.59;100.00;63944.34;5054755;28;20016;-66
2021/06/27 06:34:06;;;;;;;;;;;22.90;99.90;;;-145.59;100.00;63944.34;5055068;28;19947;-66
2021/06/27 06:36:32;;;;;;;;;;;23.20;99.90;;;-145.59;100.00;63944.34;5071847;28;19920;-65
2021/06/27 06:38:58;;;;;;;;;;;23.60;99.90;;;-145.59;100.00;63944.34;5055369;28;19920;-63
2021/06/27 06:41:24;;;;;;;;;;;23.90;99.90;;;-145.59;100.00;63944.34;5038313;28;20371;-62
2021/06/27 06:43:49;;;;;;;;;;;24.00;99.90;;;-145.59;100.00;63944.34;5072707;28;20339;-65
2021/06/27 06:46:15;;;;;;;;;;;24.30;99.90;;;-145.59;100.00;63944.34;5055418;28;19917;-59
2021/06/27 06:48:41;;;;;;;;;;;24.50;99.90;;;-145.59;100.00;63944.34;5056648;28;19920;-66
2021/06/27 06:51:07;;;;;;;;;;;24.60;99.90;;;-145.59;100.00;63944.34;5074281;28;19916;-76
2021/06/27 06:53:32;;;;;;;;;;;24.60;99.90;;;-145.59;100.00;63944.34;5055195;28;20007;-68
2021/06/27 06:55:58;;;;;;;;;;;24.50;99.90;;;-145.59;100.00;63944.34;5076382;28;20003;-74
2021/06/27 06:58:28;;;;;;;;;;;24.40;99.90;;;-145.59;100.00;63944.34;5058869;28;19920;-72
2021/06/27 07:00:54;;;;;;;;;;;24.50;99.90;;;-145.59;100.00;63944.34;5076599;28;19932;-65
2021/06/27 07:03:20;;;;;;;;;;;24.50;99.90;;;-145.59;100.00;63944.34;5058765;28;20371;-60
2021/06/27 07:05:45;;;;;;;;;;;24.60;99.90;;;-145.59;100.00;63944.34;5076329;28;19926;-64
2021/06/27 07:08:11;;;;;;;;;;;24.80;99.90;;;-145.59;100.00;63944.34;5091805;28;19927;-61
2021/06/27 07:10:37;;;;;;;;;;;24.90;99.90;;;-145.59;100.00;63944.34;5075889;28;19920;-68
2021/06/27 07:13:02;;;;;;;;;;;24.90;99.90;;;-145.59;100.00;63944.34;5076027;28;19965;-67
2021/06/27 07:15:28;;;;;;;;;;;25.10;99.90;;;-145.59;100.00;63944.34;5075962;28;20287;-64
2021/06/27 07:17:54;;;;;;;;;;;25.20;99.90;;;-145.59;100.00;63944.34;5075866;28;19924;-65
2021/06/27 07:20:20;;;;;;;;;;;25.20;99.90;;;-145.59;100.00;63944.34;5041161;28;20383;-68
2021/06/27 07:22:45;;;;;;;;;;;25.20;99.90;;;-145.59;100.00;63944.34;5076067;28;19927;-74
2021/06/27 07:25:11;;;;;;;;;;;25.10;99.90;;;-145.59;100.00;63944.34;5075663;28;19927;-66
2021/06/27 07:27:37;;;;;;;;;;;25.10;99.90;;;-145.59;100.00;63944.34;5057888;28;20284;-71
2021/06/27 07:30:06;;;;;;;;;;;25.10;99.90;;;-145.59;100.00;63944.34;5041144;28;19995;-70
2021/06/27 07:32:31;;;;;;;;;;;25.00;99.90;;;-145.59;100.00;63944.34;5057473;28;19931;-63
2021/06/27 07:34:57;;;;;;;;;;;24.90;99.90;;;-145.59;100.00;63944.34;5075507;28;20298;-63
2021/06/27 07:37:23;;;;;;;;;;;24.70;99.90;;;-145.59;100.00;63944.34;5040793;28;19939;-62
2021/06/27 07:39:48;;;;;;;;;;;24.40;99.90;;;-145.59;100.00;63944.34;5056907;28;19927;-64
2021/06/27 07:42:14;;;;;;;;;;;24.10;99.90;;;-145.59;100.00;63944.34;5057185;28;19927;-63
2021/06/27 07:44:40;;;;;;;;;;;24.00;99.90;;;-145.59;100.00;63944.34;5040838;28;20362;-63
2021/06/27 07:47:06;;;;;;;;;;;23.80;99.90;;;-145.59;100.00;63944.34;5057046;28;19943;-64
2021/06/27 07:49:31;;;;;;;;;;;23.90;99.90;;;-145.59;100.00;63944.34;5040621;28;19917;-68
2021/06/27 07:51:57;;;;;;;;;;;24.00;99.90;;;-145.59;100.00;63944.34;5057067;28;19966;-65
2021/06/27 07:54:23;;;;;;;;;;;24.00;99.90;;;-145.59;100.00;63944.34;5056907;28;20208;-66
2021/06/27 07:56:48;;;;;;;;;;;23.90;99.90;;;-145.59;100.00;63944.34;5057314;28;19927;-64
2021/06/27 07:59:15;;;;;;;;;;;23.80;99.90;;;-145.59;100.00;63944.34;5074962;28;19944;-70
2021/06/27 08:01:41;;;;;;;;;;;23.90;99.90;;;-145.59;100.00;63944.34;5057097;28;20295;-67
2021/06/27 08:04:06;;;;;;;;;;;24.00;99.90;;;-145.59;100.00;63944.34;5057745;28;19951;-63
2021/06/27 08:06:32;;;;;;;;;;;24.10;99.90;;;-145.59;100.00;63944.34;5074962;28;20247;-65
2021/06/27 08:08:58;;;;;;;;;;;24.30;99.90;;;-145.59;100.00;63944.34;5056999;28;20011;-65
2021/06/27 08:11:23;;;;;;;;;;;24.50;99.90;;;-145.59;100.00;63944.34;5040032;28;19973;-64
2021/06/27 08:13:49;;;;;;;;;;;24.50;99.90;;;-145.59;100.00;63944.34;5057142;28;19926;-64
2021/06/27 08:16:15;;;;;;;;;;;24.60;99.90;;;-145.59;100.00;63944.34;5074694;28;20443;-64
2021/06/27 08:18:40;;;;;;;;;;;24.50;99.90;;;-145.59;100.00;63944.34;5040151;28;19924;-67
2021/06/27 08:21:06;;;;;;;;;;;24.40;99.90;;;-145.59;100.00;63944.34;5056680;28;20329;-65
2021/06/27 08:23:32;;;;;;;;;;;24.50;99.90;;;-145.59;100.00;63944.34;5056945;28;19920;-66
2021/06/27 08:25:57;;;;;;;;;;;24.50;99.90;;;-145.59;100.00;63944.34;5040103;28;19955;-63
2021/06/27 08:28:23;;;;;;;;;;;24.60;99.90;;;-145.59;100.00;63944.34;5056604;28;20426;-65
2021/06/27 08:30:49;;;;;;;;;;;24.70;99.90;;;-145.59;100.00;63944.34;5056746;28;19931;-65
2021/06/27 08:33:14;;;;;;;;;;;24.90;99.90;;;-145.59;100.00;63944.34;5056361;28;19969;-70
2021/06/27 08:35:40;;;;;;;;;;;25.10;99.90;;;-145.59;100.00;63944.34;5090004;28;19927;-72
2021/06/27 08:38:08;;;;;;;;;;;25.20;99.90;;;-145.59;100.00;63944.34;5074279;28;19920;-65
2021/06/27 08:40:35;;;;;;;;;;;25.40;99.90;;;-145.59;100.00;63944.34;5040157;28;20504;-72
2021/06/27 08:43:09;;;;;;;;;;;25.40;99.90;;;-145.59;100.00;63944.34;5074348;28;19916;-64
2021/06/27 08:45:52;;;;;;;;;;;25.50;99.90;;;-145.59;100.00;63944.34;5057462;28;19916;-64
2021/06/27 08:48:23;;;;;;;;;;;25.50;99.90;;;-145.59;100.00;63944.34;5058407;28;19917;-63
2021/06/27 08:50:53;;;;;;;;;;;25.70;99.90;;;-145.59;100.00;63944.34;5056824;28;19964;-68
2021/06/27 08:53:20;;;;;;;;;;;26.10;99.90;;;-145.59;100.00;63944.34;5057256;28;19923;-62
2021/06/27 08:55:47;;;;;;;;;;;26.70;99.40;;;-145.59;100.00;63944.34;5060912;28;19952;-69
2021/06/27 08:58:12;;;;;;;;;;;27.00;98.60;;;-145.59;100.00;63944.34;5027684;28;19927;-78
2021/06/27 09:00:38;;;;;;;;;;;27.10;98.70;;;-145.59;100.00;63944.34;5056604;28;19925;-62
2021/06/27 09:03:06;;;;;;;;;;;27.60;98.30;;;-145.59;100.00;63944.34;5056835;28;19982;-62
2021/06/27 09:05:33;;;;;;;;;;;28.10;97.40;;;-145.59;100.00;63944.34;5056884;28;20446;-69
2021/06/27 09:08:16;;;;;;;;;;;28.50;97.10;;;-145.59;100.00;63944.34;5056611;28;19944;-73
2021/06/27 09:10:41;;;;;;;;;;;29.00;96.70;;;-145.59;100.00;63944.34;5074023;28;19970;-72
2021/06/27 09:13:07;;;;;;;;;;;29.40;95.80;;;-145.59;100.00;63944.34;5039572;28;19917;-64
2021/06/27 09:15:45;;;;;;;;;;;29.60;95.30;;;-145.59;100.00;63944.34;5073715;28;20019;-63
2021/06/27 09:18:13;;;;;;;;;;;29.90;95.00;;;-145.59;100.00;63944.34;5055525;28;19927;-65
2021/06/27 09:20:41;;;;;;;;;;;30.00;94.70;;;-145.59;100.00;63944.34;5055618;28;19923;-66
2021/06/27 09:23:08;;;;;;;;;;;30.30;94.30;;;-145.59;100.00;63944.34;5073653;28;19920;-64
2021/06/27 09:25:34;;;;;;;;;;;30.70;94.00;;;-145.59;100.00;63944.34;5055762;28;19924;-65
2021/06/27 09:28:04;;;;;;;;;;;30.80;93.50;;;-145.59;100.00;63944.34;5039002;28;20015;-66
2021/06/27 09:30:48;;;;;;;;;;;30.60;93.40;;;-145.59;100.00;63944.34;5056164;28;19935;-65
2021/06/27 09:33:22;;;;;;;;;;;30.30;93.70;;;-145.59;100.00;63944.34;5073433;28;19927;-62
2021/06/27 09:36:00;;;;;;;;;;;30.80;93.20;;;-145.59;100.00;63944.34;5055809;28;20707;-65
2021/06/27 09:38:36;;;;;;;;;;;31.10;93.00;;;-145.59;100.00;63944.34;5073538;28;19959;-64
2021/06/27 09:41:12;;;;;;;;;;;31.30;92.60;;;-145.59;100.00;63944.34;5056916;28;19917;-69
2021/06/27 09:43:39;;;;;;;;;;;31.60;92.10;;;-145.59;100.00;63944.34;5039105;28;19994;-64
2021/06/27 09:46:14;;;;;;;;;;;31.60;91.70;;;-145.59;100.00;63944.34;5056260;28;19916;-64
2021/06/27 09:48:57;;;;;;;;;;;31.30;92.10;;;-145.59;100.00;63944.34;5073493;28;19951;-67
2021/06/27 09:51:25;;;;;;;;;;;31.10;92.30;;;-145.59;100.00;63944.34;5055516;28;19932;-70
2021/06/27 09:53:51;;;;;;;;;;;30.90;92.40;;;-145.59;100.00;63944.34;5055846;28;20356;-66
2021/06/27 09:56:18;;;;;;;;;;;30.60;92.90;;;-145.59;100.00;63944.34;5055355;28;20408;-65
2021/06/27 09:59:01;;;;;;;;;;;30.60;93.10;;;-145.59;100.00;63944.34;5038519;28;19916;-66
2021/06/27 10:01:29;;;;;;;;;;;30.80;93.20;;;-145.59;100.00;63944.34;5056042;28;20003;-65
2021/06/27 10:03:56;;;;;;;;;;;31.40;92.60;;;-145.59;100.00;63944.34;5055800;28;19920;-66
2021/06/27 10:06:27;;;;;;;;;;;32.10;92.00;;;-145.59;100.00;63944.34;5038772;28;19921;-70
2021/06/27 10:08:54;;;;;;;;;;;32.50;91.10;;;-145.59;100.00;63944.34;5039602;28;20247;-69
2021/06/27 10:11:24;;;;;;;;;;;32.60;91.10;;;-145.59;100.00;63944.34;5055388;28;19932;-71
2021/06/27 10:13:54;;;;;;;;;;;32.50;90.80;;;-145.59;100.00;63944.34;5055125;28;20295;-65
2021/06/27 10:16:24;;;;;;;;;;;32.30;91.00;;;-145.59;100.00;63944.34;5054984;28;20002;-66
2021/06/27 10:18:50;;;;;;;;;;;31.50;91.40;;;-145.59;100.00;63944.34;5071697;28;19917;-65
2021/06/27 10:21:16;;;;;;;;;;;31.20;91.70;;;-145.59;100.00;63944.34;5073961;28;19917;-66
2021/06/27 10:23:43;;;;;;;;;;;31.40;92.00;;;-145.59;100.00;63944.34;5055866;28;19925;-66
2021/06/27 10:26:09;;;;;;;;;;;31.70;91.50;;;-145.59;100.00;63944.34;5055373;28;20385;-67
2021/06/27 10:28:35;;;;;;;;;;;31.70;91.60;;;-145.59;100.00;63944.34;5055120;28;19973;-68
2021/06/27 10:31:01;;;;;;;;;;;31.60;91.40;;;-145.59;100.00;63944.34;5059066;28;19963;-66
2021/06/27 10:33:27;;;;;;;;;;;31.40;91.70;;;-145.59;100.00;63944.34;5058976;28;19927;-72
2021/06/27 10:35:53;;;;;;;;;;;31.40;91.70;;;-145.59;100.00;63944.34;5092351;28;19920;-67
2021/06/27 10:38:26;;;;;;;;;;;31.40;91.60;;;-145.59;100.00;63944.34;5025902;28;20363;-65
2021/06/27 10:40:54;;;;;;;;;;;31.60;91.40;;;-145.59;100.00;63944.34;5077022;28;19924;-66
2021/06/27 10:43:21;;;;;;;;;;;31.70;91.30;;;-145.59;100.00;63944.34;5058916;28;19951;-67
2021/06/27 10:45:46;;;;;;;;;;;31.90;91.60;;;-145.59;100.00;63944.34;5076379;28;19966;-66
2021/06/27 10:48:33;;;;;;;;;;;32.10;91.00;;;-145.59;100.00;63944.34;5076504;28;20003;-70
2021/06/27 10:51:01;;;;;;;;;;;31.90;90.80;;;-145.59;100.00;63944.34;5076253;28;19917;-67
2021/06/27 10:53:27;;;;;;;;;;;31.60;91.00;;;-145.59;100.00;63944.34;5076398;28;19920;-69
2021/06/27 10:55:59;;;;;;;;;;;31.30;91.70;;;-145.59;100.00;63944.34;5058693;28;19923;-67